createdAt,value
2023-04-01T00:01:34.538Z,20.80
2023-04-01T00:03:36.975Z,20.80
2023-04-01T00:05:38.728Z,20.80
2023-04-01T00:07:41.243Z,20.80
2023-04-01T00:09:42.836Z,20.80
2023-04-01T00:11:46.287Z,20.80
2023-04-01T00:13:48.638Z,20.80
2023-04-01T00:15:50.826Z,20.80
2023-04-01T00:17:52.554Z,20.80
2023-04-01T00:19:56.547Z,20.80
2023-04-01T00:21:58.258Z,20.80
2023-04-01T00:24:01.228Z,20.80
2023-04-01T00:26:03.991Z,20.70
2023-04-01T00:28:05.656Z,20.80
2023-04-01T00:30:08.357Z,20.80
2023-04-01T00:32:10.343Z,20.70
2023-04-01T00:34:12.891Z,20.70
2023-04-01T00:36:17.299Z,20.70
2023-04-01T00:38:19.596Z,20.70
2023-04-01T00:40:29.261Z,20.80
2023-04-01T00:42:30.889Z,20.70
2023-04-01T00:44:35.288Z,20.70
2023-04-01T00:46:37.691Z,20.70
2023-04-01T00:48:59.780Z,20.70
2023-04-01T00:51:03.402Z,20.70
2023-04-01T00:53:08.005Z,20.70
2023-04-01T00:55:11.305Z,20.70
2023-04-01T00:57:18.427Z,20.70
2023-04-01T00:59:27.430Z,20.70
2023-04-01T01:01:31.629Z,20.70
2023-04-01T01:03:33.391Z,20.70
2023-04-01T01:05:49.445Z,20.70
2023-04-01T01:08:16.854Z,20.70
2023-04-01T01:10:24.513Z,20.70
2023-04-01T01:12:28.883Z,20.70
2023-04-01T01:14:56.203Z,20.70
2023-04-01T01:17:18.889Z,20.70
2023-04-01T01:19:57.866Z,20.70
2023-04-01T01:22:29.012Z,20.70
2023-04-01T01:24:36.693Z,20.70
2023-04-01T01:26:59.910Z,20.60
2023-04-01T01:29:13.122Z,20.60
2023-04-01T01:31:45.625Z,20.60
2023-04-01T01:33:58.617Z,20.70
2023-04-01T01:36:05.913Z,20.60
2023-04-01T01:38:12.328Z,20.60
2023-04-01T01:40:16.608Z,20.60
2023-04-01T01:42:21.564Z,20.60
2023-04-01T01:44:25.034Z,20.60
2023-04-01T01:46:29.135Z,20.60
2023-04-01T01:48:32.049Z,20.60
2023-04-01T01:50:35.003Z,20.60
2023-04-01T01:52:36.664Z,20.60
2023-04-01T01:54:54.897Z,20.60
2023-04-01T01:57:08.402Z,20.60
2023-04-01T01:59:12.709Z,20.60
2023-04-01T02:01:30.649Z,20.60
2023-04-01T02:03:36.687Z,20.60
2023-04-01T02:05:38.748Z,20.60
2023-04-01T02:07:43.307Z,20.60
2023-04-01T02:09:45.429Z,20.60
2023-04-01T02:11:59.615Z,20.50
2023-04-01T02:14:27.597Z,20.60
2023-04-01T02:16:35.484Z,20.60
2023-04-01T02:18:39.454Z,20.60
2023-04-01T02:20:42.153Z,20.60
2023-04-01T02:22:55.667Z,20.50
2023-04-01T02:25:05.621Z,20.50
2023-04-01T02:27:07.559Z,20.50
2023-04-01T02:29:10.248Z,20.60
2023-04-01T02:31:13.660Z,20.50
2023-04-01T02:33:16.099Z,20.50
2023-04-01T02:35:18.708Z,20.50
2023-04-01T02:37:20.734Z,20.50
2023-04-01T02:39:22.818Z,20.50
2023-04-01T02:41:24.436Z,20.50
2023-04-01T02:43:26.113Z,20.50
2023-04-01T02:45:27.748Z,20.50
2023-04-01T02:47:30.146Z,20.50
2023-04-01T02:49:31.884Z,20.50
2023-04-01T02:51:35.116Z,20.50
2023-04-01T02:53:36.801Z,20.50
2023-04-01T02:55:38.856Z,20.40
2023-04-01T02:57:40.509Z,20.40
2023-04-01T02:59:42.150Z,20.50
2023-04-01T03:01:43.819Z,20.50
2023-04-01T03:03:45.556Z,20.50
2023-04-01T03:05:47.222Z,20.50
2023-04-01T03:07:49.346Z,20.50
2023-04-01T03:09:51.472Z,20.40
2023-04-01T03:11:53.061Z,20.50
2023-04-01T03:13:54.727Z,20.40
2023-04-01T03:15:56.411Z,20.40
2023-04-01T03:17:58.287Z,20.50
2023-04-01T03:19:59.925Z,20.40
2023-04-01T03:22:01.616Z,20.40
2023-04-01T03:24:03.534Z,20.40
2023-04-01T03:26:05.256Z,20.40
2023-04-01T03:28:06.912Z,20.40
2023-04-01T03:30:09.069Z,20.40
2023-04-01T03:32:10.763Z,20.40
2023-04-01T03:34:12.437Z,20.40
2023-04-01T03:36:14.435Z,20.40
2023-04-01T03:38:16.738Z,20.40
2023-04-01T03:40:18.559Z,20.40
2023-04-01T03:42:20.208Z,20.40
2023-04-01T03:44:21.797Z,20.40
2023-04-01T03:46:23.671Z,20.40
2023-04-01T03:48:26.699Z,20.40
2023-04-01T03:50:30.422Z,20.40
2023-04-01T03:52:33.284Z,20.40
2023-04-01T03:54:35.138Z,20.40
2023-04-01T03:56:37.663Z,20.40
2023-04-01T03:58:40.044Z,20.40
2023-04-01T04:00:41.778Z,20.40
2023-04-01T04:02:43.541Z,20.40
2023-04-01T04:04:45.861Z,20.40
2023-04-01T04:06:47.587Z,20.40
2023-04-01T04:08:49.694Z,20.40
2023-04-01T04:10:56.746Z,20.40
2023-04-01T04:12:58.326Z,20.40
2023-04-01T04:15:00.041Z,20.50
2023-04-01T04:17:01.648Z,20.50
2023-04-01T04:19:04.312Z,20.60
2023-04-01T04:21:06.132Z,20.70
2023-04-01T04:23:07.818Z,20.80
2023-04-01T04:25:09.658Z,20.80
2023-04-01T04:27:11.262Z,20.80
2023-04-01T04:29:12.902Z,20.90
2023-04-01T04:31:21.591Z,20.90
2023-04-01T04:33:24.377Z,20.90
2023-04-01T04:35:25.984Z,20.90
2023-04-01T04:37:27.836Z,21.00
2023-04-01T04:39:29.706Z,21.00
2023-04-01T04:41:31.364Z,21.00
2023-04-01T04:43:33.016Z,21.00
2023-04-01T04:45:35.006Z,21.00
2023-04-01T04:47:36.815Z,21.10
2023-04-01T04:49:38.477Z,21.10
2023-04-01T04:51:40.709Z,21.10
2023-04-01T04:53:42.533Z,21.10
2023-04-01T04:55:45.966Z,21.10
2023-04-01T04:57:47.669Z,21.10
2023-04-01T04:59:49.340Z,21.20
2023-04-01T05:01:51.240Z,21.20
2023-04-01T05:03:53.044Z,21.20
2023-04-01T05:05:55.062Z,21.20
2023-04-01T05:07:56.881Z,21.20
2023-04-01T05:09:58.568Z,21.20
2023-04-01T05:12:00.293Z,21.20
2023-04-01T05:14:01.942Z,21.20
2023-04-01T05:16:03.694Z,21.20
2023-04-01T05:18:05.419Z,21.20
2023-04-01T05:20:07.929Z,21.20
2023-04-01T05:22:09.659Z,21.20
2023-04-01T05:24:11.388Z,21.20
2023-04-01T05:26:14.769Z,21.20
2023-04-01T05:28:17.959Z,21.20
2023-04-01T05:30:19.841Z,21.20
2023-04-01T05:32:21.525Z,21.20
2023-04-01T05:34:23.163Z,21.20
2023-04-01T05:36:24.892Z,21.20
2023-04-01T05:38:26.554Z,21.20
2023-04-01T05:40:29.279Z,21.20
2023-04-01T05:42:30.959Z,21.20
2023-04-01T05:44:32.746Z,21.10
2023-04-01T05:46:34.474Z,21.10
2023-04-01T05:48:36.966Z,21.10
2023-04-01T05:50:41.574Z,21.10
2023-04-01T05:52:43.471Z,21.10
2023-04-01T05:54:45.154Z,21.10
2023-04-01T05:56:48.628Z,21.10
2023-04-01T05:58:53.225Z,21.10
2023-04-01T06:01:11.506Z,21.10
2023-04-01T06:03:15.927Z,21.10
2023-04-01T06:05:27.695Z,21.10
2023-04-01T06:07:30.422Z,21.10
2023-04-01T06:09:32.167Z,21.10
2023-04-01T06:11:43.916Z,21.10
2023-04-01T06:14:06.185Z,21.10
2023-04-01T06:16:42.122Z,21.10
2023-04-01T06:19:16.027Z,21.10
2023-04-01T06:21:36.451Z,21.10
2023-04-01T06:23:58.775Z,21.20
2023-04-01T06:26:21.696Z,21.20
2023-04-01T06:28:45.374Z,21.20
2023-04-01T06:30:53.509Z,21.20
2023-04-01T06:33:19.621Z,21.20
2023-04-01T06:35:31.088Z,21.20
2023-04-01T06:37:50.407Z,21.20
2023-04-01T06:40:10.743Z,21.20
2023-04-01T06:42:22.952Z,21.20
2023-04-01T06:44:49.709Z,21.20
2023-04-01T06:47:02.983Z,21.20
2023-04-01T06:49:27.166Z,21.20
2023-04-01T06:51:59.224Z,21.20
2023-04-01T06:54:24.848Z,21.20
2023-04-01T06:56:29.607Z,21.20
2023-04-01T06:58:43.567Z,21.20
2023-04-01T07:00:49.063Z,21.20
2023-04-01T07:03:04.861Z,21.20
2023-04-01T07:05:08.353Z,21.20
2023-04-01T07:07:21.255Z,21.20
2023-04-01T07:09:27.464Z,21.20
2023-04-01T07:11:34.013Z,21.20
2023-04-01T07:13:43.725Z,21.20
2023-04-01T07:15:52.885Z,21.20
2023-04-01T07:18:08.010Z,21.20
2023-04-01T07:20:22.006Z,21.20
2023-04-01T07:22:36.137Z,21.20
2023-04-01T07:24:41.515Z,21.20
2023-04-01T07:26:43.183Z,21.20
2023-04-01T07:28:44.860Z,21.20
2023-04-01T07:31:15.393Z,21.20
2023-04-01T07:33:51.217Z,21.20
2023-04-01T07:36:19.190Z,21.20
2023-04-01T07:38:45.852Z,21.10
2023-04-01T07:40:51.435Z,21.10
2023-04-01T07:43:03.416Z,21.10
2023-04-01T07:45:08.041Z,21.10
2023-04-01T07:47:19.805Z,21.10
2023-04-01T07:49:24.292Z,21.10
2023-04-01T07:51:37.249Z,21.10
2023-04-01T07:54:04.088Z,21.10
2023-04-01T07:56:15.862Z,21.10
2023-04-01T07:58:49.821Z,21.10
2023-04-01T08:01:14.430Z,21.10
2023-04-01T08:03:16.103Z,21.10
2023-04-01T08:05:28.179Z,21.20
2023-04-01T08:08:00.312Z,21.20
2023-04-01T08:10:19.685Z,21.20
2023-04-01T08:12:24.317Z,21.20
2023-04-01T08:14:40.222Z,21.20
2023-04-01T08:17:03.146Z,21.20
2023-04-01T08:19:27.134Z,21.20
2023-04-01T08:21:42.915Z,21.20
2023-04-01T08:23:51.994Z,21.20
2023-04-01T08:26:15.793Z,21.20
2023-04-01T08:28:31.592Z,21.20
2023-04-01T08:30:44.743Z,21.20
2023-04-01T08:32:56.447Z,21.20
2023-04-01T08:35:17.046Z,21.20
2023-04-01T08:37:29.574Z,21.20
2023-04-01T08:39:49.357Z,21.20
2023-04-01T08:42:00.051Z,21.20
2023-04-01T08:44:29.132Z,21.20
2023-04-01T08:46:42.260Z,21.20
2023-04-01T08:49:11.313Z,21.20
2023-04-01T08:51:44.431Z,21.20
2023-04-01T08:53:52.019Z,21.20
2023-04-01T08:56:24.225Z,21.20
2023-04-01T08:58:44.530Z,21.20
2023-04-01T09:01:02.386Z,21.20
2023-04-01T09:03:30.478Z,21.20
2023-04-01T09:05:54.406Z,21.20
2023-04-01T09:08:19.897Z,21.30
2023-04-01T09:10:52.474Z,21.30
2023-04-01T09:13:11.488Z,21.30
2023-04-01T09:15:21.242Z,21.30
2023-04-01T09:18:09.635Z,21.30
2023-04-01T09:20:28.389Z,21.30
2023-04-01T09:22:53.012Z,21.30
2023-04-01T09:25:16.420Z,21.30
2023-04-01T09:28:08.764Z,21.30
2023-04-01T09:30:22.683Z,21.30
2023-04-01T09:32:51.498Z,21.30
2023-04-01T09:34:57.541Z,21.30
2023-04-01T09:37:27.762Z,21.30
2023-04-01T09:39:54.755Z,21.40
2023-04-01T09:41:56.348Z,21.40
2023-04-01T09:44:19.065Z,21.40
2023-04-01T09:46:38.661Z,21.40
2023-04-01T09:48:46.226Z,21.40
2023-04-01T09:51:23.564Z,21.40
2023-04-01T09:54:03.273Z,21.40
2023-04-01T09:56:26.441Z,21.40
2023-04-01T09:58:43.721Z,21.40
2023-04-01T10:01:03.940Z,21.40
2023-04-01T10:03:29.671Z,21.40
2023-04-01T10:05:49.590Z,21.40
2023-04-01T10:07:57.705Z,21.40
2023-04-01T10:10:17.659Z,21.50
2023-04-01T10:12:26.063Z,21.40
2023-04-01T10:14:33.564Z,21.40
2023-04-01T10:16:38.318Z,21.50
2023-04-01T10:19:01.019Z,21.40
2023-04-01T10:21:22.916Z,21.40
2023-04-01T10:23:36.500Z,21.40
2023-04-01T10:26:02.664Z,21.40
2023-04-01T10:28:29.268Z,21.40
2023-04-01T10:30:46.656Z,21.40
2023-04-01T10:33:16.263Z,21.40
2023-04-01T10:35:37.799Z,21.40
2023-04-01T10:38:14.363Z,21.40
2023-04-01T10:40:26.515Z,21.40
2023-04-01T10:42:49.203Z,21.40
2023-04-01T10:45:22.101Z,21.40
2023-04-01T10:48:01.593Z,21.40
2023-04-01T10:50:17.827Z,21.40
2023-04-01T10:52:25.953Z,21.40
2023-04-01T10:54:33.145Z,21.40
2023-04-01T10:56:34.769Z,21.40
2023-04-01T10:59:15.477Z,21.40
2023-04-01T11:02:11.463Z,21.40
2023-04-01T11:04:19.957Z,21.40
2023-04-01T11:07:09.805Z,21.40
2023-04-01T11:09:39.711Z,21.40
2023-04-01T11:12:10.092Z,21.40
2023-04-01T11:14:30.642Z,21.40
2023-04-01T11:17:03.292Z,21.40
2023-04-01T11:19:26.427Z,21.40
2023-04-01T11:21:50.610Z,21.40
2023-04-01T11:24:16.406Z,21.40
2023-04-01T11:26:56.277Z,21.30
2023-04-01T11:29:53.195Z,21.40
2023-04-01T11:32:09.536Z,21.40
2023-04-01T11:34:36.025Z,21.40
2023-04-01T11:37:16.285Z,21.40
2023-04-01T11:39:44.288Z,21.40
2023-04-01T11:42:14.035Z,21.40
2023-04-01T11:44:22.324Z,21.30
2023-04-01T11:46:32.122Z,21.40
2023-04-01T11:48:58.530Z,21.30
2023-04-01T11:51:27.136Z,21.40
2023-04-01T11:54:00.927Z,21.30
2023-04-01T11:56:21.435Z,21.40
2023-04-01T11:58:39.068Z,21.30
2023-04-01T12:01:05.927Z,21.30
2023-04-01T12:03:35.556Z,21.30
2023-04-01T12:06:02.895Z,21.30
2023-04-01T12:08:24.802Z,21.30
2023-04-01T12:10:48.426Z,21.30
2023-04-01T12:13:09.585Z,21.30
2023-04-01T12:15:14.931Z,21.30
2023-04-01T12:17:51.630Z,21.30
2023-04-01T12:20:12.002Z,21.30
2023-04-01T12:22:22.609Z,21.20
2023-04-01T12:24:55.659Z,21.30
2023-04-01T12:27:12.454Z,21.20
2023-04-01T12:29:49.325Z,21.20
2023-04-01T12:32:18.538Z,21.20
2023-04-01T12:34:58.948Z,21.30
2023-04-01T12:37:22.166Z,21.30
2023-04-01T12:40:08.392Z,21.30
2023-04-01T12:42:34.317Z,21.30
2023-04-01T12:44:46.162Z,21.30
2023-04-01T12:47:06.137Z,21.30
2023-04-01T12:49:10.828Z,21.30
2023-04-01T12:51:31.473Z,21.30
2023-04-01T12:53:42.830Z,21.30
2023-04-01T12:55:51.706Z,21.30
2023-04-01T12:58:37.025Z,21.30
2023-04-01T13:01:15.481Z,21.30
2023-04-01T13:03:43.726Z,21.30
2023-04-01T13:06:30.618Z,21.40
2023-04-01T13:08:52.485Z,21.40
2023-04-01T13:11:03.437Z,21.40
2023-04-01T13:13:23.615Z,21.40
2023-04-01T13:15:41.284Z,21.40
2023-04-01T13:17:51.364Z,21.40
2023-04-01T13:20:23.762Z,21.40
2023-04-01T13:22:55.919Z,21.40
2023-04-01T13:25:12.685Z,21.40
2023-04-01T13:27:29.707Z,21.40
2023-04-01T13:29:40.731Z,21.40
2023-04-01T13:32:16.784Z,21.40
2023-04-01T13:34:39.873Z,21.40
2023-04-01T13:36:44.291Z,21.40
2023-04-01T13:38:53.836Z,21.40
2023-04-01T13:41:03.470Z,21.40
2023-04-01T13:43:46.169Z,21.40
2023-04-01T13:46:24.332Z,21.40
2023-04-01T13:48:57.636Z,21.40
2023-04-01T13:51:38.247Z,21.40
2023-04-01T13:53:42.953Z,21.40
2023-04-01T13:55:56.066Z,21.40
2023-04-01T13:58:03.385Z,21.40
2023-04-01T14:00:21.510Z,21.40
2023-04-01T14:02:47.755Z,21.40
2023-04-01T14:05:43.709Z,21.40
2023-04-01T14:08:09.987Z,21.40
2023-04-01T14:10:40.262Z,21.40
2023-04-01T14:12:58.496Z,21.40
2023-04-01T14:15:05.982Z,21.40
2023-04-01T14:17:55.110Z,21.30
2023-04-01T14:20:27.561Z,21.40
2023-04-01T14:22:40.656Z,21.30
2023-04-01T14:25:00.814Z,21.30
2023-04-01T14:27:25.790Z,21.30
2023-04-01T14:29:34.777Z,21.40
2023-04-01T14:32:03.306Z,21.40
2023-04-01T14:34:20.348Z,21.30
2023-04-01T14:36:48.727Z,21.30
2023-04-01T14:39:01.682Z,21.30
2023-04-01T14:41:20.151Z,21.40
2023-04-01T14:43:40.449Z,21.40
2023-04-01T14:46:09.736Z,21.30
2023-04-01T14:48:34.221Z,21.40
2023-04-01T14:50:54.363Z,21.40
2023-04-01T14:53:27.134Z,21.40
2023-04-01T14:55:34.718Z,21.30
2023-04-01T14:57:36.758Z,21.30
2023-04-01T14:59:42.361Z,21.30
2023-04-01T15:02:09.860Z,21.30
2023-04-01T15:04:17.014Z,21.30
2023-04-01T15:06:42.830Z,21.30
2023-04-01T15:08:59.727Z,21.30
2023-04-01T15:11:07.407Z,21.30
2023-04-01T15:13:50.349Z,21.30
2023-04-01T15:16:24.254Z,21.30
2023-04-01T15:18:44.170Z,21.30
2023-04-01T15:20:56.827Z,21.30
2023-04-01T15:23:32.753Z,21.30
2023-04-01T15:25:52.132Z,21.30
2023-04-01T15:28:00.689Z,21.30
2023-04-01T15:30:14.305Z,21.30
2023-04-01T15:32:31.181Z,21.30
2023-04-01T15:34:45.178Z,21.30
2023-04-01T15:37:03.445Z,21.30
2023-04-01T15:39:29.991Z,21.30
2023-04-01T15:41:55.403Z,21.30
2023-04-01T15:43:57.125Z,21.40
2023-04-01T15:46:23.190Z,21.40
2023-04-01T15:48:53.228Z,21.40
2023-04-01T15:51:10.487Z,21.40
2023-04-01T15:53:32.416Z,21.40
2023-04-01T15:56:20.347Z,21.40
2023-04-01T15:58:48.547Z,21.40
2023-04-01T16:01:08.151Z,21.50
2023-04-01T16:03:36.992Z,21.50
2023-04-01T16:05:46.067Z,21.50
2023-04-01T16:07:56.712Z,21.50
2023-04-01T16:10:21.694Z,21.60
2023-04-01T16:12:41.286Z,21.60
2023-04-01T16:14:42.899Z,21.70
2023-04-01T16:17:14.070Z,21.60
2023-04-01T16:19:46.515Z,21.70
2023-04-01T16:22:09.739Z,21.70
2023-04-01T16:24:31.468Z,21.70
2023-04-01T16:27:11.472Z,21.70
2023-04-01T16:29:16.125Z,21.60
2023-04-01T16:31:44.216Z,21.60
2023-04-01T16:33:58.538Z,21.60
2023-04-01T16:36:06.525Z,21.60
2023-04-01T16:38:47.439Z,21.50
2023-04-01T16:41:16.348Z,21.50
2023-04-01T16:43:29.094Z,21.50
2023-04-01T16:46:05.902Z,21.50
2023-04-01T16:48:18.400Z,21.40
2023-04-01T16:50:24.273Z,21.40
2023-04-01T16:52:48.918Z,21.40
2023-04-01T16:55:02.545Z,21.40
2023-04-01T16:57:20.647Z,21.40
2023-04-01T16:59:56.067Z,21.40
2023-04-01T17:02:12.558Z,21.40
2023-04-01T17:04:46.805Z,21.30
2023-04-01T17:06:59.606Z,21.40
2023-04-01T17:09:25.478Z,21.40
2023-04-01T17:11:43.470Z,21.40
2023-04-01T17:14:04.052Z,21.40
2023-04-01T17:16:30.450Z,21.40
2023-04-01T17:19:02.676Z,21.40
2023-04-01T17:21:22.593Z,21.50
2023-04-01T17:23:46.669Z,21.50
2023-04-01T17:26:07.246Z,21.50
2023-04-01T17:28:48.084Z,21.50
2023-04-01T17:31:13.171Z,21.50
2023-04-01T17:33:30.849Z,21.60
2023-04-01T17:35:49.696Z,21.60
2023-04-01T17:38:13.018Z,21.60
2023-04-01T17:40:17.698Z,21.70
2023-04-01T17:42:43.478Z,21.70
2023-04-01T17:45:05.435Z,21.70
2023-04-01T17:47:32.465Z,21.70
2023-04-01T17:49:37.288Z,21.80
2023-04-01T17:51:49.568Z,21.80
2023-04-01T17:54:15.647Z,21.80
2023-04-01T17:56:24.842Z,21.80
2023-04-01T17:58:30.856Z,21.90
2023-04-01T18:00:53.878Z,21.90
2023-04-01T18:03:19.981Z,21.90
2023-04-01T18:05:49.290Z,21.90
2023-04-01T18:07:59.017Z,21.90
2023-04-01T18:10:37.110Z,21.90
2023-04-01T18:13:33.261Z,21.90
2023-04-01T18:15:49.451Z,22.00
2023-04-01T18:18:11.848Z,22.00
2023-04-01T18:20:40.156Z,22.00
2023-04-01T18:22:55.844Z,22.00
2023-04-01T18:25:02.470Z,22.00
2023-04-01T18:27:30.695Z,22.00
2023-04-01T18:29:55.812Z,22.00
2023-04-01T18:32:15.461Z,22.00
2023-04-01T18:34:49.932Z,22.00
2023-04-01T18:37:00.255Z,22.00
2023-04-01T18:39:09.656Z,22.00
2023-04-01T18:41:44.177Z,22.00
2023-04-01T18:44:17.054Z,22.00
2023-04-01T18:46:40.885Z,22.00
2023-04-01T18:49:07.926Z,22.00
2023-04-01T18:51:19.737Z,22.00
2023-04-01T18:53:49.339Z,22.00
2023-04-01T18:55:56.221Z,22.00
2023-04-01T18:58:14.347Z,22.00
2023-04-01T19:00:46.056Z,22.00
2023-04-01T19:03:07.399Z,22.00
2023-04-01T19:05:32.893Z,22.10
2023-04-01T19:07:37.584Z,22.10
2023-04-01T19:09:50.775Z,22.10
2023-04-01T19:12:07.289Z,22.00
2023-04-01T19:15:13.833Z,22.00
2023-04-01T19:17:43.062Z,22.00
2023-04-01T19:20:03.329Z,22.00
2023-04-01T19:22:30.914Z,22.00
2023-04-01T19:25:00.120Z,22.00
2023-04-01T19:27:25.382Z,22.00
2023-04-01T19:29:29.753Z,22.00
2023-04-01T19:31:53.826Z,22.00
2023-04-01T19:34:07.582Z,22.00
2023-04-01T19:36:17.057Z,22.00
2023-04-01T19:38:31.181Z,22.00
2023-04-01T19:40:48.827Z,22.00
2023-04-01T19:43:17.759Z,21.90
2023-04-01T19:45:40.731Z,21.90
2023-04-01T19:48:00.619Z,21.90
2023-04-01T19:50:43.049Z,21.90
2023-04-01T19:52:48.640Z,21.90
2023-04-01T19:55:16.908Z,21.90
2023-04-01T19:57:30.773Z,21.90
2023-04-01T19:59:42.684Z,21.90
2023-04-01T20:02:24.793Z,21.90
2023-04-01T20:04:43.103Z,21.80
2023-04-01T20:07:16.052Z,21.80
2023-04-01T20:09:41.696Z,21.80
2023-04-01T20:11:51.657Z,21.80
2023-04-01T20:14:10.577Z,21.80
2023-04-01T20:16:13.893Z,21.80
2023-04-01T20:18:17.880Z,21.80
2023-04-01T20:20:21.388Z,21.80
2023-04-01T20:23:02.140Z,21.80
2023-04-01T20:25:31.193Z,21.80
2023-04-01T20:27:42.915Z,21.80
2023-04-01T20:30:10.118Z,21.70
2023-04-01T20:33:06.421Z,21.70
2023-04-01T20:35:29.981Z,21.70
2023-04-01T20:37:40.924Z,21.70
2023-04-01T20:40:00.633Z,21.70
2023-04-01T20:42:17.054Z,21.70
2023-04-01T20:45:06.493Z,21.70
2023-04-01T20:47:16.601Z,21.70
2023-04-01T20:49:39.348Z,21.70
2023-04-01T20:51:49.108Z,21.70
2023-04-01T20:54:24.614Z,21.70
2023-04-01T20:56:48.232Z,21.70
2023-04-01T20:58:52.741Z,21.70
2023-04-01T21:01:16.586Z,21.60
2023-04-01T21:03:40.354Z,21.70
2023-04-01T21:06:05.509Z,21.60
2023-04-01T21:08:24.856Z,21.60
2023-04-01T21:10:45.124Z,21.60
2023-04-01T21:13:06.049Z,21.60
2023-04-01T21:15:20.392Z,21.60
2023-04-01T21:17:43.734Z,21.60
2023-04-01T21:19:59.880Z,21.60
2023-04-01T21:22:23.817Z,21.50
2023-04-01T21:24:25.499Z,21.60
2023-04-01T21:26:52.454Z,21.60
2023-04-01T21:29:11.924Z,21.50
2023-04-01T21:31:24.643Z,21.60
2023-04-01T21:33:41.311Z,21.50
2023-04-01T21:35:51.079Z,21.50
2023-04-01T21:37:55.891Z,21.50
2023-04-01T21:40:36.463Z,21.50
2023-04-01T21:43:13.988Z,21.50
2023-04-01T21:45:44.193Z,21.50
2023-04-01T21:48:16.550Z,21.50
2023-04-01T21:50:42.598Z,21.50
2023-04-01T21:53:22.916Z,21.50
2023-04-01T21:55:39.712Z,21.50
2023-04-01T21:58:21.738Z,21.50
2023-04-01T22:00:29.396Z,21.50
2023-04-01T22:02:34.095Z,21.40
2023-04-01T22:05:12.355Z,21.50
2023-04-01T22:07:33.013Z,21.40
2023-04-01T22:09:46.758Z,21.40
2023-04-01T22:12:03.887Z,21.40
2023-04-01T22:14:13.384Z,21.40
2023-04-01T22:16:23.005Z,21.40
2023-04-01T22:19:14.270Z,21.40
2023-04-01T22:21:39.159Z,21.40
2023-04-01T22:24:06.878Z,21.40
2023-04-01T22:26:36.633Z,21.40
2023-04-01T22:28:48.429Z,21.40
2023-04-01T22:30:57.518Z,21.40
2023-04-01T22:33:19.631Z,21.40
2023-04-01T22:35:41.346Z,21.40
2023-04-01T22:38:02.550Z,21.40
2023-04-01T22:40:22.297Z,21.40
2023-04-01T22:42:36.941Z,21.40
2023-04-01T22:45:03.094Z,21.40
2023-04-01T22:47:23.663Z,21.40
2023-04-01T22:49:49.437Z,21.40
2023-04-01T22:52:10.606Z,21.40
2023-04-01T22:54:38.649Z,21.30
2023-04-01T22:56:47.399Z,21.40
2023-04-01T22:59:07.114Z,21.30
2023-04-01T23:01:15.556Z,21.30
2023-04-01T23:03:29.006Z,21.30
2023-04-01T23:05:32.752Z,21.30
2023-04-01T23:07:49.917Z,21.30
2023-04-01T23:09:54.176Z,21.30
2023-04-01T23:12:10.667Z,21.30
2023-04-01T23:14:21.358Z,21.30
2023-04-01T23:16:38.398Z,21.30
2023-04-01T23:19:03.000Z,21.30
2023-04-01T23:21:11.728Z,21.30
2023-04-01T23:23:33.257Z,21.30
2023-04-01T23:25:56.359Z,21.30
2023-04-01T23:28:16.900Z,21.30
2023-04-01T23:30:40.366Z,21.30
2023-04-01T23:32:42.033Z,21.30
2023-04-01T23:34:50.677Z,21.30
2023-04-01T23:37:03.725Z,21.30
2023-04-01T23:39:18.617Z,21.30
2023-04-01T23:41:29.975Z,21.30
2023-04-01T23:43:43.625Z,21.30
2023-04-01T23:45:45.915Z,21.30
2023-04-01T23:47:51.313Z,21.30
2023-04-01T23:49:57.397Z,21.20
2023-04-01T23:52:39.992Z,21.20
2023-04-01T23:54:49.093Z,21.20
2023-04-01T23:56:56.941Z,21.20
2023-04-01T23:59:00.228Z,21.20
